createdAt,value
2022-11-30T00:00:43.991Z,93948.28
2022-11-30T00:01:46.879Z,93942.47
2022-11-30T00:02:48.781Z,93939.44
2022-11-30T00:03:53.364Z,93948.28
2022-11-30T00:04:54.864Z,93943.59
2022-11-30T00:05:56.362Z,93938.25
2022-11-30T00:06:57.874Z,93943.75
2022-11-30T00:08:00.837Z,93942.53
2022-11-30T00:09:02.450Z,93938.78
2022-11-30T00:10:06.015Z,93941.66
2022-11-30T00:11:08.960Z,93949.22
2022-11-30T00:12:10.499Z,93952.75
2022-11-30T00:13:12.085Z,93948.19
2022-11-30T00:14:13.573Z,93954.22
2022-11-30T00:15:16.179Z,93950.47
2022-11-30T00:16:17.818Z,93940.16
2022-11-30T00:17:20.749Z,93943.69
2022-11-30T00:18:22.233Z,93938.25
2022-11-30T00:19:23.799Z,93939.75
2022-11-30T00:20:26.497Z,93937.31
2022-11-30T00:21:28.062Z,93933.84
2022-11-30T00:22:29.599Z,93936.44
2022-11-30T00:23:34.461Z,93934.13
2022-11-30T00:24:36.004Z,93928.91
2022-11-30T00:25:37.579Z,93936.59
2022-11-30T00:26:39.140Z,93936.28
2022-11-30T00:27:40.778Z,93934.56
2022-11-30T00:28:43.109Z,93938.28
2022-11-30T00:29:44.677Z,93932.06
2022-11-30T00:30:46.188Z,93937.81
2022-11-30T00:31:47.710Z,93938.91
2022-11-30T00:32:50.579Z,93941.13
2022-11-30T00:33:52.186Z,93945.50
2022-11-30T00:34:54.020Z,93935.34
2022-11-30T00:35:56.865Z,93943.47
2022-11-30T00:36:58.391Z,93939.47
2022-11-30T00:38:01.895Z,93943.31
2022-11-30T00:39:03.468Z,93937.28
2022-11-30T00:40:06.597Z,93942.47
2022-11-30T00:41:08.201Z,93940.41
2022-11-30T00:42:09.912Z,93943.47
2022-11-30T00:43:11.388Z,93939.06
2022-11-30T00:44:12.936Z,93943.22
2022-11-30T00:45:14.535Z,93941.47
2022-11-30T00:46:16.145Z,93942.13
2022-11-30T00:47:17.669Z,93949.94
2022-11-30T00:48:20.754Z,93947.34
2022-11-30T00:49:22.250Z,93949.97
2022-11-30T00:50:23.763Z,93950.94
2022-11-30T00:51:25.338Z,93949.66
2022-11-30T00:52:32.546Z,93953.81
2022-11-30T00:53:34.435Z,93944.66
2022-11-30T00:54:35.936Z,93951.66
2022-11-30T00:55:37.495Z,93951.09
2022-11-30T00:56:39.073Z,93951.09
2022-11-30T00:57:40.608Z,93951.22
2022-11-30T00:58:42.128Z,93947.63
2022-11-30T00:59:43.667Z,93947.50
2022-11-30T01:00:45.522Z,93953.13
2022-11-30T01:01:47.075Z,93957.34
2022-11-30T01:02:53.877Z,93962.00
2022-11-30T01:03:56.777Z,93954.25
2022-11-30T01:04:58.326Z,93951.66
2022-11-30T01:06:02.256Z,93963.22
2022-11-30T01:07:04.004Z,93963.25
2022-11-30T01:08:08.583Z,93959.53
2022-11-30T01:09:10.114Z,93964.66
2022-11-30T01:10:11.707Z,93964.50
2022-11-30T01:11:16.547Z,93961.47
2022-11-30T01:12:18.087Z,93963.50
2022-11-30T01:13:19.650Z,93969.28
2022-11-30T01:14:21.306Z,93965.16
2022-11-30T01:15:23.698Z,93970.19
2022-11-30T01:16:27.543Z,93968.00
2022-11-30T01:17:29.091Z,93967.19
2022-11-30T01:18:30.599Z,93964.94
2022-11-30T01:19:33.481Z,93960.00
2022-11-30T01:20:35.295Z,93963.81
2022-11-30T01:21:36.811Z,93962.56
2022-11-30T01:22:38.473Z,93968.41
2022-11-30T01:23:40.954Z,93959.88
2022-11-30T01:24:42.475Z,93968.72
2022-11-30T01:25:53.564Z,93965.38
2022-11-30T01:26:55.098Z,93970.34
2022-11-30T01:27:56.616Z,93970.94
2022-11-30T01:28:58.202Z,93965.28
2022-11-30T01:29:59.745Z,93973.16
2022-11-30T01:31:03.754Z,93965.72
2022-11-30T01:32:05.934Z,93970.16
2022-11-30T01:33:07.479Z,93973.34
2022-11-30T01:34:08.979Z,93972.50
2022-11-30T01:35:11.904Z,93969.88
2022-11-30T01:36:14.940Z,93970.44
2022-11-30T01:37:16.469Z,93978.22
2022-11-30T01:38:18.011Z,93966.88
2022-11-30T01:39:19.567Z,93974.91
2022-11-30T01:40:21.125Z,93978.00
2022-11-30T01:41:25.023Z,93975.13
2022-11-30T01:42:26.883Z,93980.34
2022-11-30T01:43:41.440Z,93979.88
2022-11-30T01:44:55.023Z,93985.13
2022-11-30T01:45:57.367Z,93982.16
2022-11-30T01:47:03.081Z,93986.97
2022-11-30T01:48:07.411Z,93985.56
2022-11-30T01:49:15.987Z,93979.59
2022-11-30T01:50:23.735Z,93982.78
2022-11-30T01:51:29.535Z,93985.34
2022-11-30T01:52:35.523Z,93984.53
2022-11-30T01:53:37.078Z,93982.34
2022-11-30T01:54:43.078Z,93984.53
2022-11-30T01:55:47.449Z,93981.50
2022-11-30T01:56:52.199Z,93976.06
2022-11-30T01:57:58.055Z,93977.88
2022-11-30T01:59:00.206Z,93980.75
2022-11-30T02:00:06.605Z,93978.91
2022-11-30T02:01:08.137Z,93983.31
2022-11-30T02:02:09.827Z,93980.78
2022-11-30T02:03:30.105Z,93981.13
2022-11-30T02:04:34.170Z,93985.84
2022-11-30T02:05:39.399Z,93982.09
2022-11-30T02:06:41.693Z,93986.16
2022-11-30T02:07:43.633Z,93986.00
2022-11-30T02:08:46.143Z,93980.41
2022-11-30T02:09:47.726Z,93982.97
2022-11-30T02:10:53.358Z,93978.75
2022-11-30T02:11:56.651Z,93980.94
2022-11-30T02:13:32.116Z,93979.66
2022-11-30T02:14:38.217Z,93980.41
2022-11-30T02:15:49.039Z,93973.78
2022-11-30T02:17:00.694Z,93974.88
2022-11-30T02:18:09.142Z,93979.56
2022-11-30T02:19:33.717Z,93974.97
2022-11-30T02:20:55.571Z,93978.50
2022-11-30T02:22:04.089Z,93984.72
2022-11-30T02:23:29.157Z,93988.13
2022-11-30T02:24:54.398Z,93991.44
2022-11-30T02:26:04.356Z,93990.78
2022-11-30T02:27:26.612Z,93986.38
2022-11-30T02:29:04.085Z,93989.53
2022-11-30T02:30:09.756Z,93994.47
2022-11-30T02:31:15.024Z,93987.25
2022-11-30T02:32:20.491Z,93989.50
2022-11-30T02:33:25.294Z,93988.44
2022-11-30T02:34:30.235Z,93993.97
2022-11-30T02:35:35.071Z,93987.66
2022-11-30T02:36:40.298Z,93988.19
2022-11-30T02:37:43.009Z,93986.78
2022-11-30T02:38:44.593Z,93983.84
2022-11-30T02:39:46.130Z,93982.16
2022-11-30T02:40:47.842Z,93985.19
2022-11-30T02:41:49.581Z,93977.78
2022-11-30T02:42:53.900Z,93981.84
2022-11-30T02:43:55.459Z,93979.44
2022-11-30T02:44:58.395Z,93984.13
2022-11-30T02:46:08.518Z,93986.66
2022-11-30T02:47:22.179Z,93978.56
2022-11-30T02:48:29.966Z,93977.75
2022-11-30T02:49:36.949Z,93974.16
2022-11-30T02:50:44.279Z,93977.88
2022-11-30T02:51:48.233Z,93980.06
2022-11-30T02:52:50.351Z,93975.88
2022-11-30T02:53:52.767Z,93982.81
2022-11-30T02:54:59.335Z,93987.25
2022-11-30T02:56:00.832Z,93973.03
2022-11-30T02:57:02.380Z,93979.47
2022-11-30T02:58:03.932Z,93978.38
2022-11-30T02:59:05.510Z,93979.91
2022-11-30T03:00:10.409Z,93976.72
2022-11-30T03:01:12.021Z,93974.84
2022-11-30T03:02:13.546Z,93983.19
2022-11-30T03:03:15.065Z,93984.13
2022-11-30T03:04:16.619Z,93983.81
2022-11-30T03:05:18.266Z,93986.25
2022-11-30T03:06:19.812Z,93993.34
2022-11-30T03:07:21.471Z,93991.28
2022-11-30T03:08:23.143Z,93982.66
2022-11-30T03:09:24.731Z,93987.59
2022-11-30T03:10:26.294Z,93975.03
2022-11-30T03:11:27.826Z,93974.75
2022-11-30T03:12:29.502Z,93982.03
2022-11-30T03:13:31.088Z,93979.31
2022-11-30T03:14:32.638Z,93983.78
2022-11-30T03:15:35.941Z,93981.84
2022-11-30T03:16:37.546Z,93981.81
2022-11-30T03:17:39.061Z,93976.59
2022-11-30T03:18:40.871Z,93979.50
2022-11-30T03:19:42.355Z,93976.81
2022-11-30T03:20:43.914Z,93976.00
2022-11-30T03:21:45.431Z,93977.88
2022-11-30T03:22:46.972Z,93983.31
2022-11-30T03:23:48.511Z,93980.47
2022-11-30T03:24:50.389Z,93979.88
2022-11-30T03:25:52.063Z,93984.72
2022-11-30T03:26:53.603Z,93981.66
2022-11-30T03:27:55.285Z,93986.25
2022-11-30T03:29:16.887Z,93983.84
2022-11-30T03:30:18.735Z,93992.91
2022-11-30T03:31:21.610Z,93989.47
2022-11-30T03:32:23.232Z,93987.00
2022-11-30T03:33:25.205Z,93979.59
2022-11-30T03:34:26.701Z,93980.69
2022-11-30T03:35:28.234Z,93986.81
2022-11-30T03:36:29.735Z,93985.06
2022-11-30T03:37:31.236Z,93987.31
2022-11-30T03:38:33.381Z,93984.50
2022-11-30T03:39:34.925Z,93983.91
2022-11-30T03:40:37.138Z,93978.84
2022-11-30T03:41:38.676Z,93986.38
2022-11-30T03:42:40.202Z,93984.06
2022-11-30T03:43:42.116Z,93985.00
2022-11-30T03:44:43.643Z,93982.03
2022-11-30T03:45:45.233Z,93979.09
2022-11-30T03:46:48.209Z,93987.56
2022-11-30T03:47:49.762Z,93980.34
2022-11-30T03:48:57.468Z,93981.22
2022-11-30T03:49:59.010Z,93984.19
2022-11-30T03:51:00.518Z,93982.84
2022-11-30T03:52:03.137Z,93981.00
2022-11-30T03:53:04.646Z,93982.91
2022-11-30T03:54:06.221Z,93980.13
2022-11-30T03:55:08.458Z,93976.16
2022-11-30T03:56:11.591Z,93979.66
2022-11-30T03:57:13.135Z,93982.09
2022-11-30T03:58:14.626Z,93973.72
2022-11-30T03:59:16.167Z,93982.72
2022-11-30T04:00:19.234Z,93978.31
2022-11-30T04:01:22.042Z,93986.56
2022-11-30T04:02:25.008Z,93984.13
2022-11-30T04:03:26.782Z,93980.44
2022-11-30T04:04:28.329Z,93978.53
2022-11-30T04:05:29.864Z,93971.75
2022-11-30T04:06:31.395Z,93981.03
2022-11-30T04:07:32.972Z,93976.97
2022-11-30T04:08:35.536Z,93978.09
2022-11-30T04:09:37.057Z,93979.31
2022-11-30T04:10:38.598Z,93984.47
2022-11-30T04:11:40.142Z,93982.09
2022-11-30T04:12:41.698Z,93976.28
2022-11-30T04:13:43.397Z,93971.84
2022-11-30T04:14:45.149Z,93980.19
2022-11-30T04:15:48.035Z,93976.97
2022-11-30T04:16:49.612Z,93983.78
2022-11-30T04:17:52.491Z,93983.66
2022-11-30T04:18:53.992Z,93981.94
2022-11-30T04:19:55.496Z,93981.56
2022-11-30T04:20:58.597Z,93982.97
2022-11-30T04:22:00.135Z,93981.47
2022-11-30T04:23:01.664Z,93986.16
2022-11-30T04:24:03.567Z,93985.69
2022-11-30T04:25:06.011Z,93984.13
2022-11-30T04:26:10.818Z,93994.00
2022-11-30T04:27:12.330Z,93980.19
2022-11-30T04:28:14.900Z,93986.75
2022-11-30T04:29:16.450Z,93985.75
2022-11-30T04:30:17.999Z,93991.06
2022-11-30T04:31:19.539Z,93994.31
2022-11-30T04:32:21.066Z,93991.72
2022-11-30T04:33:23.908Z,93988.53
2022-11-30T04:34:25.446Z,94002.69
2022-11-30T04:35:27.013Z,93989.88
2022-11-30T04:36:28.551Z,93987.25
2022-11-30T04:37:30.102Z,94000.53
2022-11-30T04:38:32.474Z,94005.53
2022-11-30T04:39:34.170Z,93991.66
2022-11-30T04:40:39.688Z,93998.34
2022-11-30T04:41:41.222Z,94003.97
2022-11-30T04:42:43.013Z,93997.34
2022-11-30T04:43:44.556Z,93998.56
2022-11-30T04:44:46.532Z,93996.59
2022-11-30T04:45:48.364Z,93996.19
2022-11-30T04:46:49.879Z,93990.72
2022-11-30T04:47:51.371Z,94000.25
2022-11-30T04:48:54.205Z,94000.66
2022-11-30T04:49:55.807Z,94004.53
2022-11-30T04:51:00.869Z,94003.97
2022-11-30T04:52:02.423Z,94008.91
2022-11-30T04:53:04.015Z,94000.50
2022-11-30T04:54:05.670Z,94008.91
2022-11-30T04:55:08.050Z,93998.59
2022-11-30T04:56:11.019Z,94003.16
2022-11-30T04:57:12.571Z,94005.22
2022-11-30T04:58:14.063Z,94001.72
2022-11-30T04:59:15.605Z,94001.44
2022-11-30T05:00:18.893Z,94007.88
2022-11-30T05:01:20.465Z,94006.25
2022-11-30T05:02:22.025Z,94013.09
2022-11-30T05:03:23.575Z,94010.63
2022-11-30T05:04:26.504Z,94007.34
2022-11-30T05:05:28.251Z,94007.88
2022-11-30T05:06:29.747Z,94011.91
2022-11-30T05:07:31.347Z,94006.03
2022-11-30T05:08:32.893Z,94011.22
2022-11-30T05:09:34.540Z,94014.09
2022-11-30T05:10:36.104Z,94006.13
2022-11-30T05:11:37.632Z,94009.69
2022-11-30T05:12:39.132Z,94011.72
2022-11-30T05:13:40.630Z,94016.69
2022-11-30T05:14:42.184Z,94027.38
2022-11-30T05:15:43.680Z,94015.19
2022-11-30T05:16:47.106Z,94012.03
2022-11-30T05:17:48.597Z,94015.44
2022-11-30T05:18:51.054Z,94011.78
2022-11-30T05:19:54.007Z,94006.31
2022-11-30T05:20:55.503Z,94007.13
2022-11-30T05:21:57.050Z,94006.59
2022-11-30T05:22:58.713Z,94012.34
2022-11-30T05:24:00.405Z,94010.28
2022-11-30T05:25:02.143Z,94005.34
2022-11-30T05:26:04.403Z,94007.94
2022-11-30T05:27:16.585Z,94012.50
2022-11-30T05:28:20.980Z,94009.63
2022-11-30T05:29:22.480Z,94006.16
2022-11-30T05:30:23.955Z,94017.84
2022-11-30T05:31:25.470Z,94009.03
2022-11-30T05:32:27.073Z,94014.13
2022-11-30T05:33:28.599Z,94007.28
2022-11-30T05:34:30.198Z,94013.31
2022-11-30T05:35:33.243Z,94014.00
2022-11-30T05:36:34.798Z,94014.41
2022-11-30T05:37:36.292Z,94017.13
2022-11-30T05:38:37.904Z,94014.53
2022-11-30T05:39:39.444Z,94008.78
2022-11-30T05:40:40.947Z,94014.41
2022-11-30T05:41:42.503Z,94019.22
2022-11-30T05:42:44.005Z,94019.22
2022-11-30T05:43:45.517Z,94016.88
2022-11-30T05:44:47.385Z,94023.59
2022-11-30T05:45:49.104Z,94024.84
2022-11-30T05:46:50.649Z,94025.09
2022-11-30T05:47:52.307Z,94025.38
2022-11-30T05:48:53.823Z,94018.09
2022-11-30T05:49:55.374Z,94023.03
2022-11-30T05:51:04.797Z,94021.94
2022-11-30T05:52:06.353Z,94020.41
2022-11-30T05:53:07.894Z,94024.84
2022-11-30T05:54:09.451Z,94023.47
2022-11-30T05:55:11.211Z,94024.28
2022-11-30T05:56:14.813Z,94022.63
2022-11-30T05:57:16.365Z,94019.47
2022-11-30T05:58:17.876Z,94023.84
2022-11-30T05:59:19.368Z,94029.50
2022-11-30T06:00:27.101Z,94026.91
2022-11-30T06:01:29.239Z,94029.44
2022-11-30T06:02:30.825Z,94016.72
2022-11-30T06:03:34.431Z,94021.50
2022-11-30T06:04:35.966Z,94021.06
2022-11-30T06:05:37.625Z,94022.22
2022-11-30T06:06:40.477Z,94024.97
2022-11-30T06:07:42.054Z,94014.81
2022-11-30T06:08:44.656Z,94022.78
2022-11-30T06:09:46.374Z,94027.84
2022-11-30T06:10:48.676Z,94027.44
2022-11-30T06:11:51.257Z,94023.31
2022-11-30T06:12:53.469Z,94017.16
2022-11-30T06:13:55.859Z,94021.53
2022-11-30T06:14:57.629Z,94020.31
2022-11-30T06:15:59.981Z,94024.56
2022-11-30T06:17:01.708Z,94019.22
2022-11-30T06:18:03.764Z,94022.63
2022-11-30T06:19:05.456Z,94022.63
2022-11-30T06:20:08.188Z,94017.84
2022-11-30T06:21:11.343Z,94018.81
2022-11-30T06:22:14.253Z,94017.56
2022-11-30T06:23:15.844Z,94014.97
2022-11-30T06:24:17.385Z,94025.22
2022-11-30T06:25:19.000Z,94020.31
2022-11-30T06:26:20.530Z,94021.28
2022-11-30T06:27:22.296Z,94024.66
2022-11-30T06:28:23.919Z,94026.91
2022-11-30T06:29:25.460Z,94021.41
2022-11-30T06:30:26.986Z,94020.44
2022-11-30T06:31:30.301Z,94024.84
2022-11-30T06:32:31.845Z,94025.66
2022-11-30T06:33:33.959Z,94026.47
2022-11-30T06:34:35.528Z,94018.00
2022-11-30T06:35:37.049Z,94023.47
2022-11-30T06:36:38.579Z,94021.00
2022-11-30T06:37:41.751Z,94034.97
2022-11-30T06:38:43.254Z,94027.56
2022-11-30T06:40:05.460Z,94026.75
2022-11-30T06:41:09.063Z,94023.47
2022-11-30T06:42:10.753Z,94026.34
2022-11-30T06:43:12.287Z,94024.28
2022-11-30T06:44:13.825Z,94026.34
2022-11-30T06:45:15.458Z,94028.81
2022-11-30T06:46:17.051Z,94025.50
2022-11-30T06:47:18.597Z,94023.06
2022-11-30T06:48:20.189Z,94024.69
2022-11-30T06:49:21.709Z,94022.09
2022-11-30T06:50:23.505Z,94029.63
2022-11-30T06:51:25.037Z,94021.25
2022-11-30T06:52:26.550Z,94031.28
2022-11-30T06:53:29.433Z,94025.38
2022-11-30T06:54:39.862Z,94030.88
2022-11-30T06:55:41.344Z,94030.72
2022-11-30T06:56:42.853Z,94029.50
2022-11-30T06:57:44.398Z,94033.47
2022-11-30T06:58:45.953Z,94039.38
2022-11-30T06:59:47.505Z,94034.84
2022-11-30T07:00:49.186Z,94036.34
2022-11-30T07:01:52.017Z,94039.50
2022-11-30T07:02:53.985Z,94038.84
2022-11-30T07:03:55.818Z,94035.25
2022-11-30T07:04:57.919Z,94043.06
2022-11-30T07:06:00.354Z,94044.69
2022-11-30T07:07:01.894Z,94036.50
2022-11-30T07:08:03.915Z,94040.47
2022-11-30T07:09:07.009Z,94034.16
2022-11-30T07:10:09.524Z,94033.34
2022-11-30T07:11:12.328Z,94037.69
2022-11-30T07:12:13.856Z,94035.94
2022-11-30T07:13:18.277Z,94028.41
2022-11-30T07:14:19.933Z,94033.75
2022-11-30T07:15:21.587Z,94034.16
2022-11-30T07:16:23.129Z,94037.44
2022-11-30T07:17:24.668Z,94034.28
2022-11-30T07:18:31.696Z,94037.16
2022-11-30T07:19:34.366Z,94031.69
2022-11-30T07:20:36.735Z,94033.03
2022-11-30T07:21:38.270Z,94031.81
2022-11-30T07:22:40.943Z,94041.38
2022-11-30T07:23:42.509Z,94034.13
2022-11-30T07:24:45.658Z,94042.50
2022-11-30T07:25:48.550Z,94037.38
2022-11-30T07:26:50.085Z,94034.22
2022-11-30T07:27:51.625Z,94037.75
2022-11-30T07:28:54.214Z,94039.44
2022-11-30T07:29:55.851Z,94041.00
2022-11-30T07:30:57.381Z,94036.41
2022-11-30T07:31:58.938Z,94044.56
2022-11-30T07:33:00.687Z,94046.50
2022-11-30T07:34:05.149Z,94038.13
2022-11-30T07:35:07.127Z,94042.53
2022-11-30T07:36:09.175Z,94037.19
2022-11-30T07:37:10.739Z,94040.59
2022-11-30T07:38:12.243Z,94041.66
2022-11-30T07:39:14.516Z,94034.91
2022-11-30T07:40:17.487Z,94047.75
2022-11-30T07:41:19.169Z,94044.13
2022-11-30T07:42:20.708Z,94047.63
2022-11-30T07:43:22.244Z,94037.72
2022-11-30T07:44:23.766Z,94043.72
2022-11-30T07:45:25.293Z,94042.31
2022-11-30T07:46:26.832Z,94045.16
2022-11-30T07:47:28.380Z,94046.31
2022-11-30T07:48:30.459Z,94052.63
2022-11-30T07:49:31.982Z,94047.59
2022-11-30T07:50:33.510Z,94048.78
2022-11-30T07:51:35.507Z,94050.88
2022-11-30T07:52:37.039Z,94054.88
2022-11-30T07:53:38.653Z,94050.25
2022-11-30T07:54:40.182Z,94055.03
2022-11-30T07:55:43.480Z,94052.03
2022-11-30T07:56:44.995Z,94064.94
2022-11-30T07:57:46.513Z,94068.53
2022-11-30T07:58:48.892Z,94063.78
2022-11-30T07:59:50.520Z,94064.56
2022-11-30T08:00:52.218Z,94063.72
2022-11-30T08:01:53.900Z,94060.16
2022-11-30T08:02:55.558Z,94059.97
2022-11-30T08:03:58.119Z,94058.88
2022-11-30T08:04:59.712Z,94061.06
2022-11-30T08:06:01.968Z,94061.56
2022-11-30T08:07:03.486Z,94063.34
2022-11-30T08:08:05.135Z,94061.06
2022-11-30T08:09:06.697Z,94065.59
2022-11-30T08:10:09.506Z,94067.88
2022-11-30T08:11:14.965Z,94067.38
2022-11-30T08:12:16.525Z,94063.03
2022-11-30T08:13:18.054Z,94067.66
2022-11-30T08:14:19.634Z,94065.16
2022-11-30T08:15:22.371Z,94066.06
2022-11-30T08:16:27.431Z,94062.44
2022-11-30T08:17:28.967Z,94067.13
2022-11-30T08:18:30.526Z,94074.03
2022-11-30T08:19:32.019Z,94066.66
2022-11-30T08:20:33.531Z,94064.78
2022-11-30T08:21:35.125Z,94067.47
2022-11-30T08:22:36.639Z,94068.00
2022-11-30T08:23:39.921Z,94066.06
2022-11-30T08:24:41.468Z,94058.97
2022-11-30T08:25:42.955Z,94063.03
2022-11-30T08:26:45.819Z,94063.81
2022-11-30T08:27:47.329Z,94064.44
2022-11-30T08:28:50.088Z,94063.81
2022-11-30T08:29:51.796Z,94070.69
2022-11-30T08:30:53.349Z,94069.91
2022-11-30T08:31:54.925Z,94067.66
2022-11-30T08:32:57.064Z,94066.16
2022-11-30T08:34:00.334Z,94067.25
2022-11-30T08:35:01.850Z,94075.47
2022-11-30T08:36:07.914Z,94072.13
2022-11-30T08:37:09.638Z,94070.38
2022-11-30T08:38:11.169Z,94067.31
2022-11-30T08:39:13.557Z,94078.44
2022-11-30T08:40:15.337Z,94066.72
2022-11-30T08:41:21.124Z,94072.94
2022-11-30T08:42:23.987Z,94072.31
2022-11-30T08:43:25.508Z,94070.53
2022-11-30T08:44:28.470Z,94074.03
2022-11-30T08:45:29.992Z,94070.47
2022-11-30T08:46:52.097Z,94077.00
2022-11-30T08:47:54.749Z,94073.66
2022-11-30T08:49:12.907Z,94074.63
2022-11-30T08:50:18.076Z,94079.22
2022-11-30T08:51:20.851Z,94079.91
2022-11-30T08:52:22.474Z,94082.50
2022-11-30T08:53:23.994Z,94082.47
2022-11-30T08:54:25.526Z,94082.66
2022-11-30T08:55:27.134Z,94083.59
2022-11-30T08:56:28.662Z,94086.44
2022-11-30T08:57:31.619Z,94086.88
2022-11-30T08:58:35.453Z,94078.72
2022-11-30T08:59:37.115Z,94081.34
2022-11-30T09:00:38.642Z,94079.56
2022-11-30T09:01:40.194Z,94080.31
2022-11-30T09:02:41.836Z,94088.13
2022-11-30T09:03:44.718Z,94090.09
2022-11-30T09:04:47.655Z,94083.41
2022-11-30T09:05:49.205Z,94092.38
2022-11-30T09:06:50.716Z,94088.59
2022-11-30T09:07:52.297Z,94089.44
2022-11-30T09:08:55.899Z,94085.84
2022-11-30T09:09:57.394Z,94090.66
2022-11-30T09:10:58.915Z,94092.69
2022-11-30T09:12:03.593Z,94089.31
2022-11-30T09:13:06.454Z,94095.78
2022-11-30T09:14:09.625Z,94089.88
2022-11-30T09:15:11.264Z,94082.19
2022-11-30T09:16:14.436Z,94087.09
2022-11-30T09:17:16.006Z,94085.56
2022-11-30T09:18:17.514Z,94090.81
2022-11-30T09:19:19.301Z,94088.03
2022-11-30T09:20:20.960Z,94093.81
2022-11-30T09:21:24.522Z,94087.59
2022-11-30T09:22:26.776Z,94087.59
2022-11-30T09:23:28.840Z,94087.03
2022-11-30T09:24:30.369Z,94080.13
2022-11-30T09:25:31.891Z,94088.50
2022-11-30T09:26:33.412Z,94083.19
2022-11-30T09:27:34.953Z,94087.22
2022-11-30T09:28:38.956Z,94084.25
2022-11-30T09:29:40.594Z,94085.69
2022-11-30T09:30:42.209Z,94080.44
2022-11-30T09:31:43.728Z,94080.66
2022-11-30T09:32:45.240Z,94082.66
2022-11-30T09:33:46.881Z,94084.56
2022-11-30T09:34:50.600Z,94079.97
2022-11-30T09:35:56.609Z,94079.72
2022-11-30T09:36:58.373Z,94084.50
2022-11-30T09:38:09.053Z,94083.72
2022-11-30T09:39:11.754Z,94082.13
2022-11-30T09:40:15.042Z,94086.34
2022-11-30T09:41:40.721Z,94084.72
2022-11-30T09:42:51.544Z,94083.91
2022-11-30T09:44:02.866Z,94089.13
2022-11-30T09:45:11.309Z,94079.38
2022-11-30T09:46:13.412Z,94084.03
2022-11-30T09:47:35.806Z,94092.81
2022-11-30T09:48:51.290Z,94090.06
2022-11-30T09:49:53.711Z,94092.25
2022-11-30T09:51:00.346Z,94082.94
2022-11-30T09:52:04.133Z,94080.63
2022-11-30T09:53:10.451Z,94081.31
2022-11-30T09:54:14.981Z,94081.31
2022-11-30T09:55:24.816Z,94081.56
2022-11-30T09:56:30.668Z,94089.09
2022-11-30T09:57:46.854Z,94084.44
2022-11-30T09:58:52.947Z,94084.53
2022-11-30T09:59:57.865Z,94086.53
2022-11-30T10:01:02.483Z,94082.28
2022-11-30T10:02:15.831Z,94086.63
2022-11-30T10:03:21.857Z,94086.19
2022-11-30T10:04:25.526Z,94081.69
2022-11-30T10:05:38.120Z,94082.53
2022-11-30T10:06:49.553Z,94090.19
2022-11-30T10:08:09.922Z,94087.59
2022-11-30T10:09:40.114Z,94083.19
2022-11-30T10:10:44.887Z,94081.66
2022-11-30T10:11:59.657Z,94086.66
2022-11-30T10:13:22.572Z,94079.34
2022-11-30T10:14:37.041Z,94078.47
2022-11-30T10:15:51.998Z,94079.31
2022-11-30T10:17:00.783Z,94070.56
2022-11-30T10:18:12.213Z,94082.81
2022-11-30T10:19:19.917Z,94075.34
2022-11-30T10:20:37.601Z,94074.41
2022-11-30T10:21:54.701Z,94084.47
2022-11-30T10:23:10.431Z,94079.66
2022-11-30T10:24:25.062Z,94085.81
2022-11-30T10:25:37.523Z,94081.69
2022-11-30T10:26:43.659Z,94080.63
2022-11-30T10:27:50.662Z,94082.66
2022-11-30T10:28:53.691Z,94079.81
2022-11-30T10:29:57.105Z,94081.56
2022-11-30T10:31:03.034Z,94083.41
2022-11-30T10:32:13.658Z,94080.56
2022-11-30T10:33:18.379Z,94072.06
2022-11-30T10:34:22.223Z,94079.84
2022-11-30T10:35:34.295Z,94073.91
2022-11-30T10:36:39.437Z,94078.31
2022-11-30T10:37:42.056Z,94071.28
2022-11-30T10:38:48.425Z,94076.66
2022-11-30T10:39:58.824Z,94075.81
2022-11-30T10:41:06.349Z,94077.91
2022-11-30T10:42:12.723Z,94073.63
2022-11-30T10:43:20.617Z,94075.03
2022-11-30T10:44:26.426Z,94069.13
2022-11-30T10:45:30.329Z,94064.44
2022-11-30T10:46:34.897Z,94063.78
2022-11-30T10:47:41.484Z,94066.44
2022-11-30T10:48:48.435Z,94064.19
2022-11-30T10:49:51.720Z,94069.31
2022-11-30T10:50:53.749Z,94067.53
2022-11-30T10:52:01.589Z,94064.81
2022-11-30T10:53:03.316Z,94069.19
2022-11-30T10:54:14.553Z,94063.16
2022-11-30T10:55:20.311Z,94057.97
2022-11-30T10:56:21.847Z,94060.53
2022-11-30T10:57:28.586Z,94057.66
2022-11-30T10:58:32.938Z,94063.44
2022-11-30T10:59:41.777Z,94064.22
2022-11-30T11:00:50.315Z,94062.47
2022-11-30T11:01:53.319Z,94066.25
2022-11-30T11:02:55.067Z,94058.34
2022-11-30T11:04:08.710Z,94061.50
2022-11-30T11:05:21.895Z,94065.41
2022-11-30T11:06:24.900Z,94062.25
2022-11-30T11:07:26.661Z,94059.75
2022-11-30T11:08:28.650Z,94056.13
2022-11-30T11:09:33.858Z,94061.63
2022-11-30T11:10:42.644Z,94064.56
2022-11-30T11:11:44.196Z,94060.03
2022-11-30T11:12:50.647Z,94056.50
2022-11-30T11:13:52.207Z,94058.44
2022-11-30T11:15:08.551Z,94050.84
2022-11-30T11:16:11.586Z,94057.28
2022-11-30T11:17:23.896Z,94053.66
2022-11-30T11:18:27.154Z,94054.31
2022-11-30T11:19:35.179Z,94058.25
2022-11-30T11:20:37.998Z,94057.91
2022-11-30T11:21:44.959Z,94051.00
2022-11-30T11:22:46.548Z,94048.16
2022-11-30T11:23:51.328Z,94044.50
2022-11-30T11:24:55.958Z,94048.34
2022-11-30T11:25:57.547Z,94054.19
2022-11-30T11:26:59.199Z,94048.41
2022-11-30T11:28:06.698Z,94049.75
2022-11-30T11:29:24.441Z,94049.34
2022-11-30T11:30:30.427Z,94044.63
2022-11-30T11:31:36.728Z,94045.72
2022-11-30T11:32:39.721Z,94050.19
2022-11-30T11:33:50.629Z,94046.97
2022-11-30T11:34:52.856Z,94044.50
2022-11-30T11:35:55.718Z,94045.91
2022-11-30T11:37:06.362Z,94047.47
2022-11-30T11:38:23.136Z,94045.16
2022-11-30T11:39:25.882Z,94055.00
2022-11-30T11:40:27.609Z,94049.09
2022-11-30T11:41:31.729Z,94053.78
2022-11-30T11:42:36.452Z,94047.59
2022-11-30T11:43:58.013Z,94052.03
2022-11-30T11:45:01.721Z,94044.91
2022-11-30T11:46:12.922Z,94045.94
2022-11-30T11:47:24.428Z,94042.38
2022-11-30T11:48:39.068Z,94042.00
2022-11-30T11:49:40.706Z,94047.34
2022-11-30T11:51:06.664Z,94052.34
2022-11-30T11:52:16.670Z,94050.22
2022-11-30T11:53:20.970Z,94048.63
2022-11-30T11:54:24.584Z,94046.84
2022-11-30T11:55:26.205Z,94051.34
2022-11-30T11:56:29.920Z,94049.31
2022-11-30T11:57:40.579Z,94045.84
2022-11-30T11:58:47.301Z,94047.75
2022-11-30T11:59:54.929Z,94044.69
2022-11-30T12:01:23.773Z,94040.44
2022-11-30T12:02:29.391Z,94042.00
2022-11-30T12:03:37.719Z,94039.56
2022-11-30T12:04:45.634Z,94036.28
2022-11-30T12:05:51.612Z,94043.38
2022-11-30T12:06:56.250Z,94044.19
2022-11-30T12:08:07.392Z,94042.38
2022-11-30T12:09:15.422Z,94046.25
2022-11-30T12:11:49.087Z,94045.97
2022-11-30T12:12:54.708Z,94050.41
2022-11-30T12:13:56.545Z,94044.06
2022-11-30T12:14:58.426Z,94046.53
2022-11-30T12:16:07.942Z,94049.97
2022-11-30T12:17:26.170Z,94045.72
2022-11-30T12:18:33.882Z,94049.00
2022-11-30T12:19:43.126Z,94048.03
2022-11-30T12:20:54.135Z,94048.31
2022-11-30T12:22:04.109Z,94052.84
2022-11-30T12:23:20.631Z,94046.97
2022-11-30T12:24:53.703Z,94045.22
2022-11-30T12:26:01.960Z,94051.81
2022-11-30T12:27:11.638Z,94045.81
2022-11-30T12:28:23.955Z,94043.66
2022-11-30T12:29:34.343Z,94052.03
2022-11-30T12:30:43.042Z,94049.69
2022-11-30T12:31:59.951Z,94051.91
2022-11-30T12:33:11.859Z,94049.59
2022-11-30T12:34:19.916Z,94046.16
2022-11-30T12:35:29.735Z,94049.53